sensor_id;sensor_type;location;lat;lon;timestamp;pressure;altitude;pressure_sealevel;temperature;humidity
74065;BME280;62421;51.412;5.432;2022-07-23T00:01:28;101703.16;;;15.77;77.82
74065;BME280;62421;51.412;5.432;2022-07-23T00:03:54;101706.97;;;15.75;77.71
74065;BME280;62421;51.412;5.432;2022-07-23T00:06:20;101708.09;;;15.72;78.01
74065;BME280;62421;51.412;5.432;2022-07-23T00:08:45;101705.19;;;15.63;77.97
74065;BME280;62421;51.412;5.432;2022-07-23T00:11:11;101702.59;;;15.61;78.29
74065;BME280;62421;51.412;5.432;2022-07-23T00:13:36;101705.28;;;15.61;77.10
74065;BME280;62421;51.412;5.432;2022-07-23T00:16:02;101701.84;;;15.59;76.74
74065;BME280;62421;51.412;5.432;2022-07-23T00:18:27;101704.69;;;15.57;77.47
74065;BME280;62421;51.412;5.432;2022-07-23T00:20:53;101706.41;;;15.59;78.20
74065;BME280;62421;51.412;5.432;2022-07-23T00:23:18;101717.47;;;15.55;78.28
74065;BME280;62421;51.412;5.432;2022-07-23T00:25:44;101705.44;;;15.60;77.99
74065;BME280;62421;51.412;5.432;2022-07-23T00:28:10;101704.19;;;15.64;78.02
74065;BME280;62421;51.412;5.432;2022-07-23T00:30:37;101704.06;;;15.65;77.39
74065;BME280;62421;51.412;5.432;2022-07-23T00:33:05;101707.03;;;15.62;78.93
74065;BME280;62421;51.412;5.432;2022-07-23T00:35:33;101700.63;;;15.63;77.33
74065;BME280;62421;51.412;5.432;2022-07-23T00:37:59;101703.69;;;15.59;77.87
74065;BME280;62421;51.412;5.432;2022-07-23T00:40:26;101705.16;;;15.51;78.55
74065;BME280;62421;51.412;5.432;2022-07-23T00:42:53;101700.97;;;15.47;78.86
74065;BME280;62421;51.412;5.432;2022-07-23T00:45:19;101705.75;;;15.44;77.96
74065;BME280;62421;51.412;5.432;2022-07-23T00:47:44;101705.13;;;15.40;78.10
74065;BME280;62421;51.412;5.432;2022-07-23T00:50:11;101697.97;;;15.39;77.79
74065;BME280;62421;51.412;5.432;2022-07-23T00:52:37;101695.63;;;15.34;78.78
74065;BME280;62421;51.412;5.432;2022-07-23T00:55:04;101699.56;;;15.30;78.77
74065;BME280;62421;51.412;5.432;2022-07-23T00:57:30;101696.47;;;15.24;78.88
74065;BME280;62421;51.412;5.432;2022-07-23T00:59:56;101692.00;;;15.23;79.07
74065;BME280;62421;51.412;5.432;2022-07-23T01:02:23;101702.56;;;15.14;79.59
74065;BME280;62421;51.412;5.432;2022-07-23T01:04:49;101699.47;;;15.08;80.05
74065;BME280;62421;51.412;5.432;2022-07-23T01:07:15;101690.81;;;15.03;79.92
74065;BME280;62421;51.412;5.432;2022-07-23T01:09:40;101691.56;;;15.05;79.27
74065;BME280;62421;51.412;5.432;2022-07-23T01:12:07;101695.28;;;15.04;79.64
74065;BME280;62421;51.412;5.432;2022-07-23T01:14:32;101685.66;;;15.00;79.36
74065;BME280;62421;51.412;5.432;2022-07-23T01:16:58;101689.31;;;14.99;79.42
74065;BME280;62421;51.412;5.432;2022-07-23T01:19:23;101690.44;;;14.96;79.82
74065;BME280;62421;51.412;5.432;2022-07-23T01:21:51;101688.44;;;14.87;79.80
74065;BME280;62421;51.412;5.432;2022-07-23T01:24:17;101687.88;;;14.82;80.31
74065;BME280;62421;51.412;5.432;2022-07-23T01:26:47;101692.03;;;14.74;80.95
74065;BME280;62421;51.412;5.432;2022-07-23T01:29:13;101695.72;;;14.73;80.52
74065;BME280;62421;51.412;5.432;2022-07-23T01:31:39;101688.69;;;14.71;80.38
74065;BME280;62421;51.412;5.432;2022-07-23T01:34:05;101679.81;;;14.69;80.17
74065;BME280;62421;51.412;5.432;2022-07-23T01:36:32;101684.38;;;14.68;80.16
74065;BME280;62421;51.412;5.432;2022-07-23T01:38:58;101682.66;;;14.67;80.75
74065;BME280;62421;51.412;5.432;2022-07-23T01:41:23;101690.03;;;14.65;80.31
74065;BME280;62421;51.412;5.432;2022-07-23T01:43:48;101687.53;;;14.62;79.97
74065;BME280;62421;51.412;5.432;2022-07-23T01:46:14;101693.19;;;14.59;80.35
74065;BME280;62421;51.412;5.432;2022-07-23T01:48:39;101693.38;;;14.56;80.41
74065;BME280;62421;51.412;5.432;2022-07-23T01:51:04;101683.78;;;14.52;80.54
74065;BME280;62421;51.412;5.432;2022-07-23T01:53:30;101679.22;;;14.52;80.29
74065;BME280;62421;51.412;5.432;2022-07-23T01:56:00;101677.63;;;14.50;80.47
74065;BME280;62421;51.412;5.432;2022-07-23T01:58:26;101665.31;;;14.46;80.29
74065;BME280;62421;51.412;5.432;2022-07-23T02:00:51;101672.66;;;14.44;80.60
74065;BME280;62421;51.412;5.432;2022-07-23T02:03:16;101675.56;;;14.41;80.81
74065;BME280;62421;51.412;5.432;2022-07-23T02:05:42;101679.47;;;14.37;80.83
74065;BME280;62421;51.412;5.432;2022-07-23T02:08:07;101682.16;;;14.37;80.81
74065;BME280;62421;51.412;5.432;2022-07-23T02:10:32;101684.34;;;14.31;80.73
74065;BME280;62421;51.412;5.432;2022-07-23T02:12:58;101675.81;;;14.25;80.86
74065;BME280;62421;51.412;5.432;2022-07-23T02:15:23;101675.94;;;14.23;81.02
74065;BME280;62421;51.412;5.432;2022-07-23T02:17:49;101676.91;;;14.22;80.76
74065;BME280;62421;51.412;5.432;2022-07-23T02:20:14;101681.56;;;14.20;80.85
74065;BME280;62421;51.412;5.432;2022-07-23T02:22:39;101680.91;;;14.17;81.10
74065;BME280;62421;51.412;5.432;2022-07-23T02:25:05;101665.03;;;14.12;81.12
74065;BME280;62421;51.412;5.432;2022-07-23T02:27:31;101669.94;;;14.07;81.75
74065;BME280;62421;51.412;5.432;2022-07-23T02:29:57;101661.94;;;14.05;81.83
74065;BME280;62421;51.412;5.432;2022-07-23T02:32:23;101670.13;;;14.04;81.14
74065;BME280;62421;51.412;5.432;2022-07-23T02:34:48;101665.72;;;14.03;81.08
74065;BME280;62421;51.412;5.432;2022-07-23T02:37:14;101664.81;;;14.02;81.75
74065;BME280;62421;51.412;5.432;2022-07-23T02:39:39;101676.63;;;14.01;81.32
74065;BME280;62421;51.412;5.432;2022-07-23T02:42:05;101674.88;;;14.00;81.40
74065;BME280;62421;51.412;5.432;2022-07-23T02:44:30;101672.31;;;13.99;81.44
74065;BME280;62421;51.412;5.432;2022-07-23T02:46:56;101668.84;;;13.97;81.37
74065;BME280;62421;51.412;5.432;2022-07-23T02:49:21;101674.34;;;13.95;81.44
74065;BME280;62421;51.412;5.432;2022-07-23T02:51:47;101668.28;;;13.91;81.47
74065;BME280;62421;51.412;5.432;2022-07-23T02:54:12;101663.03;;;13.90;81.31
74065;BME280;62421;51.412;5.432;2022-07-23T02:56:37;101667.25;;;13.81;81.85
74065;BME280;62421;51.412;5.432;2022-07-23T02:59:03;101668.28;;;13.79;82.09
74065;BME280;62421;51.412;5.432;2022-07-23T03:01:28;101667.44;;;13.78;81.97
74065;BME280;62421;51.412;5.432;2022-07-23T03:03:53;101666.06;;;13.72;82.07
74065;BME280;62421;51.412;5.432;2022-07-23T03:06:19;101673.59;;;13.67;82.35
74065;BME280;62421;51.412;5.432;2022-07-23T03:08:44;101678.03;;;13.68;82.16
74065;BME280;62421;51.412;5.432;2022-07-23T03:11:09;101671.75;;;13.68;82.33
74065;BME280;62421;51.412;5.432;2022-07-23T03:13:40;101672.84;;;13.65;82.26
74065;BME280;62421;51.412;5.432;2022-07-23T03:16:05;101675.53;;;13.65;82.59
74065;BME280;62421;51.412;5.432;2022-07-23T03:18:31;101682.88;;;13.63;82.43
74065;BME280;62421;51.412;5.432;2022-07-23T03:20:56;101688.50;;;13.60;82.82
74065;BME280;62421;51.412;5.432;2022-07-23T03:23:22;101691.19;;;13.60;82.84
74065;BME280;62421;51.412;5.432;2022-07-23T03:25:47;101690.34;;;13.60;82.72
74065;BME280;62421;51.412;5.432;2022-07-23T03:28:17;101701.13;;;13.60;82.98
74065;BME280;62421;51.412;5.432;2022-07-23T03:30:46;101697.88;;;13.55;83.31
74065;BME280;62421;51.412;5.432;2022-07-23T03:33:12;101697.88;;;13.55;82.93
74065;BME280;62421;51.412;5.432;2022-07-23T03:35:38;101702.50;;;13.52;83.08
74065;BME280;62421;51.412;5.432;2022-07-23T03:38:03;101701.00;;;13.48;82.76
74065;BME280;62421;51.412;5.432;2022-07-23T03:40:29;101700.22;;;13.46;82.83
74065;BME280;62421;51.412;5.432;2022-07-23T03:42:54;101710.28;;;13.44;83.24
74065;BME280;62421;51.412;5.432;2022-07-23T03:45:19;101705.84;;;13.43;83.33
74065;BME280;62421;51.412;5.432;2022-07-23T03:47:45;101695.06;;;13.43;83.09
74065;BME280;62421;51.412;5.432;2022-07-23T03:50:10;101708.78;;;13.40;83.42
74065;BME280;62421;51.412;5.432;2022-07-23T03:52:36;101695.47;;;13.37;83.82
74065;BME280;62421;51.412;5.432;2022-07-23T03:55:02;101699.91;;;13.38;83.46
74065;BME280;62421;51.412;5.432;2022-07-23T03:57:28;101703.66;;;13.36;83.21
74065;BME280;62421;51.412;5.432;2022-07-23T03:59:53;101699.47;;;13.31;83.53
74065;BME280;62421;51.412;5.432;2022-07-23T04:02:19;101696.56;;;13.35;83.28
74065;BME280;62421;51.412;5.432;2022-07-23T04:04:44;101702.81;;;13.35;82.99
74065;BME280;62421;51.412;5.432;2022-07-23T04:07:09;101701.94;;;13.35;83.31
74065;BME280;62421;51.412;5.432;2022-07-23T04:09:35;101704.41;;;13.38;83.27
74065;BME280;62421;51.412;5.432;2022-07-23T04:12:00;101704.31;;;13.39;83.16
74065;BME280;62421;51.412;5.432;2022-07-23T04:14:26;101702.38;;;13.41;83.07
74065;BME280;62421;51.412;5.432;2022-07-23T04:16:51;101698.75;;;13.42;83.68
74065;BME280;62421;51.412;5.432;2022-07-23T04:19:16;101709.53;;;13.42;82.97
74065;BME280;62421;51.412;5.432;2022-07-23T04:21:42;101712.75;;;13.47;82.78
74065;BME280;62421;51.412;5.432;2022-07-23T04:24:07;101722.47;;;13.50;83.06
74065;BME280;62421;51.412;5.432;2022-07-23T04:26:32;101714.94;;;13.55;83.17
74065;BME280;62421;51.412;5.432;2022-07-23T04:28:58;101723.59;;;13.60;83.55
74065;BME280;62421;51.412;5.432;2022-07-23T04:31:23;101719.03;;;13.61;83.16
74065;BME280;62421;51.412;5.432;2022-07-23T04:33:48;101719.28;;;13.70;83.10
74065;BME280;62421;51.412;5.432;2022-07-23T04:36:14;101724.47;;;13.86;82.70
74065;BME280;62421;51.412;5.432;2022-07-23T04:38:39;101723.81;;;13.96;82.13
74065;BME280;62421;51.412;5.432;2022-07-23T04:41:04;101730.72;;;14.00;81.81
74065;BME280;62421;51.412;5.432;2022-07-23T04:43:30;101733.97;;;14.05;81.77
74065;BME280;62421;51.412;5.432;2022-07-23T04:45:56;101730.09;;;14.09;81.79
74065;BME280;62421;51.412;5.432;2022-07-23T04:48:21;101738.06;;;14.10;81.50
74065;BME280;62421;51.412;5.432;2022-07-23T04:50:46;101734.91;;;14.29;80.90
74065;BME280;62421;51.412;5.432;2022-07-23T04:53:11;101739.50;;;15.03;78.99
74065;BME280;62421;51.412;5.432;2022-07-23T04:55:37;101743.03;;;15.87;76.08
74065;BME280;62421;51.412;5.432;2022-07-23T04:58:02;101736.69;;;16.55;73.15
74065;BME280;62421;51.412;5.432;2022-07-23T05:00:27;101738.44;;;17.11;71.33
74065;BME280;62421;51.412;5.432;2022-07-23T05:02:53;101744.69;;;17.55;68.65
74065;BME280;62421;51.412;5.432;2022-07-23T05:05:18;101733.97;;;17.75;68.27
74065;BME280;62421;51.412;5.432;2022-07-23T05:07:43;101743.75;;;18.08;67.59
74065;BME280;62421;51.412;5.432;2022-07-23T05:10:09;101742.66;;;18.51;65.67
74065;BME280;62421;51.412;5.432;2022-07-23T05:12:34;101744.91;;;18.77;64.74
74065;BME280;62421;51.412;5.432;2022-07-23T05:14:59;101736.81;;;18.87;63.40
74065;BME280;62421;51.412;5.432;2022-07-23T05:17:25;101745.69;;;18.89;63.56
74065;BME280;62421;51.412;5.432;2022-07-23T05:19:50;101743.84;;;19.09;63.21
74065;BME280;62421;51.412;5.432;2022-07-23T05:22:15;101742.41;;;19.14;62.14
74065;BME280;62421;51.412;5.432;2022-07-23T05:24:40;101745.59;;;19.39;61.97
74065;BME280;62421;51.412;5.432;2022-07-23T05:27:06;101752.88;;;19.68;61.32
74065;BME280;62421;51.412;5.432;2022-07-23T05:29:31;101747.06;;;20.19;58.88
74065;BME280;62421;51.412;5.432;2022-07-23T05:31:56;101754.19;;;20.30;58.65
74065;BME280;62421;51.412;5.432;2022-07-23T05:34:22;101744.50;;;20.08;59.26
74065;BME280;62421;51.412;5.432;2022-07-23T05:36:47;101759.31;;;19.18;60.72
74065;BME280;62421;51.412;5.432;2022-07-23T05:39:14;101758.47;;;18.06;64.47
74065;BME280;62421;51.412;5.432;2022-07-23T05:41:39;101762.00;;;17.43;67.52
74065;BME280;62421;51.412;5.432;2022-07-23T05:44:04;101757.94;;;17.05;69.09
74065;BME280;62421;51.412;5.432;2022-07-23T05:46:30;101758.22;;;16.79;71.14
74065;BME280;62421;51.412;5.432;2022-07-23T05:48:55;101767.63;;;16.53;70.23
74065;BME280;62421;51.412;5.432;2022-07-23T05:51:21;101773.66;;;16.34;72.01
74065;BME280;62421;51.412;5.432;2022-07-23T05:53:47;101774.13;;;16.16;72.33
74065;BME280;62421;51.412;5.432;2022-07-23T05:56:13;101775.22;;;16.03;73.41
74065;BME280;62421;51.412;5.432;2022-07-23T05:58:38;101771.88;;;15.99;72.97
74065;BME280;62421;51.412;5.432;2022-07-23T06:01:03;101784.41;;;15.89;72.79
74065;BME280;62421;51.412;5.432;2022-07-23T06:03:29;101780.22;;;15.85;73.90
74065;BME280;62421;51.412;5.432;2022-07-23T06:05:55;101779.72;;;15.80;73.33
74065;BME280;62421;51.412;5.432;2022-07-23T06:08:20;101787.59;;;15.83;74.26
74065;BME280;62421;51.412;5.432;2022-07-23T06:10:45;101792.66;;;15.87;73.81
74065;BME280;62421;51.412;5.432;2022-07-23T06:13:11;101792.78;;;15.86;74.93
74065;BME280;62421;51.412;5.432;2022-07-23T06:15:36;101793.53;;;15.88;74.13
74065;BME280;62421;51.412;5.432;2022-07-23T06:18:01;101786.16;;;15.90;73.62
74065;BME280;62421;51.412;5.432;2022-07-23T06:20:27;101781.34;;;15.93;74.60
74065;BME280;62421;51.412;5.432;2022-07-23T06:22:52;101784.78;;;15.95;73.43
74065;BME280;62421;51.412;5.432;2022-07-23T06:25:17;101778.41;;;15.96;74.21
74065;BME280;62421;51.412;5.432;2022-07-23T06:27:45;101782.84;;;15.97;73.96
74065;BME280;62421;51.412;5.432;2022-07-23T06:30:11;101791.72;;;16.00;72.97
74065;BME280;62421;51.412;5.432;2022-07-23T06:32:36;101789.75;;;16.02;72.53
74065;BME280;62421;51.412;5.432;2022-07-23T06:35:02;101795.69;;;16.07;72.79
74065;BME280;62421;51.412;5.432;2022-07-23T06:37:27;101788.03;;;16.12;72.95
74065;BME280;62421;51.412;5.432;2022-07-23T06:39:53;101793.34;;;16.13;71.91
74065;BME280;62421;51.412;5.432;2022-07-23T06:42:18;101794.84;;;16.17;70.51
74065;BME280;62421;51.412;5.432;2022-07-23T06:44:43;101791.00;;;16.20;70.36
74065;BME280;62421;51.412;5.432;2022-07-23T06:47:09;101794.22;;;16.25;71.51
74065;BME280;62421;51.412;5.432;2022-07-23T06:49:34;101786.81;;;16.27;69.56
74065;BME280;62421;51.412;5.432;2022-07-23T06:51:59;101785.59;;;16.31;69.54
74065;BME280;62421;51.412;5.432;2022-07-23T06:54:25;101795.97;;;16.37;68.71
74065;BME280;62421;51.412;5.432;2022-07-23T06:56:50;101794.34;;;16.46;68.96
74065;BME280;62421;51.412;5.432;2022-07-23T06:59:15;101799.78;;;16.57;69.30
74065;BME280;62421;51.412;5.432;2022-07-23T07:01:41;101791.25;;;16.62;68.50
74065;BME280;62421;51.412;5.432;2022-07-23T07:04:06;101784.59;;;16.66;67.26
74065;BME280;62421;51.412;5.432;2022-07-23T07:06:31;101784.97;;;16.73;67.79
74065;BME280;62421;51.412;5.432;2022-07-23T07:08:57;101776.25;;;16.81;68.82
74065;BME280;62421;51.412;5.432;2022-07-23T07:11:22;101792.78;;;16.89;66.48
74065;BME280;62421;51.412;5.432;2022-07-23T07:13:49;101789.53;;;16.95;67.81
74065;BME280;62421;51.412;5.432;2022-07-23T07:16:14;101790.16;;;16.98;66.20
74065;BME280;62421;51.412;5.432;2022-07-23T07:18:39;101788.16;;;17.01;66.63
74065;BME280;62421;51.412;5.432;2022-07-23T07:21:05;101798.16;;;17.00;67.38
74065;BME280;62421;51.412;5.432;2022-07-23T07:23:30;101794.44;;;17.01;65.73
74065;BME280;62421;51.412;5.432;2022-07-23T07:25:55;101789.66;;;17.05;66.92
74065;BME280;62421;51.412;5.432;2022-07-23T07:28:21;101799.72;;;17.14;66.91
74065;BME280;62421;51.412;5.432;2022-07-23T07:30:46;101793.69;;;17.22;65.93
74065;BME280;62421;51.412;5.432;2022-07-23T07:33:12;101800.81;;;17.34;66.09
74065;BME280;62421;51.412;5.432;2022-07-23T07:35:38;101810.41;;;17.38;66.09
74065;BME280;62421;51.412;5.432;2022-07-23T07:38:03;101809.28;;;17.40;64.60
74065;BME280;62421;51.412;5.432;2022-07-23T07:40:28;101809.53;;;17.37;64.64
74065;BME280;62421;51.412;5.432;2022-07-23T07:42:54;101808.81;;;17.35;67.81
74065;BME280;62421;51.412;5.432;2022-07-23T07:45:22;101806.69;;;17.39;64.71
74065;BME280;62421;51.412;5.432;2022-07-23T07:47:48;101816.03;;;17.46;65.81
74065;BME280;62421;51.412;5.432;2022-07-23T07:50:15;101809.38;;;17.50;65.37
74065;BME280;62421;51.412;5.432;2022-07-23T07:52:40;101799.72;;;17.57;65.87
74065;BME280;62421;51.412;5.432;2022-07-23T07:55:08;101810.53;;;17.69;66.20
74065;BME280;62421;51.412;5.432;2022-07-23T07:57:34;101810.03;;;17.75;67.71
74065;BME280;62421;51.412;5.432;2022-07-23T07:59:59;101811.25;;;17.82;68.37
74065;BME280;62421;51.412;5.432;2022-07-23T08:02:25;101812.47;;;17.78;62.80
74065;BME280;62421;51.412;5.432;2022-07-23T08:04:51;101811.13;;;17.84;65.55
74065;BME280;62421;51.412;5.432;2022-07-23T08:07:17;101812.31;;;17.91;65.07
74065;BME280;62421;51.412;5.432;2022-07-23T08:09:42;101809.06;;;17.97;64.40
74065;BME280;62421;51.412;5.432;2022-07-23T08:12:08;101819.66;;;18.00;62.70
74065;BME280;62421;51.412;5.432;2022-07-23T08:14:33;101813.28;;;18.11;62.47
74065;BME280;62421;51.412;5.432;2022-07-23T08:16:58;101806.38;;;18.07;60.19
74065;BME280;62421;51.412;5.432;2022-07-23T08:19:24;101809.47;;;18.13;61.95
74065;BME280;62421;51.412;5.432;2022-07-23T08:21:49;101818.94;;;18.19;62.09
74065;BME280;62421;51.412;5.432;2022-07-23T08:24:15;101810.66;;;18.20;59.77
74065;BME280;62421;51.412;5.432;2022-07-23T08:26:40;101810.25;;;18.25;61.71
74065;BME280;62421;51.412;5.432;2022-07-23T08:29:06;101820.56;;;18.31;58.71
74065;BME280;62421;51.412;5.432;2022-07-23T08:31:32;101824.22;;;18.41;60.06
74065;BME280;62421;51.412;5.432;2022-07-23T08:33:58;101822.53;;;18.50;58.86
74065;BME280;62421;51.412;5.432;2022-07-23T08:36:24;101817.28;;;18.58;59.10
74065;BME280;62421;51.412;5.432;2022-07-23T08:38:49;101823.06;;;18.65;59.16
74065;BME280;62421;51.412;5.432;2022-07-23T08:41:14;101828.81;;;18.72;60.60
74065;BME280;62421;51.412;5.432;2022-07-23T08:43:41;101827.16;;;18.80;57.55
74065;BME280;62421;51.412;5.432;2022-07-23T08:46:08;101826.97;;;18.82;58.36
74065;BME280;62421;51.412;5.432;2022-07-23T08:48:35;101831.44;;;18.83;56.96
74065;BME280;62421;51.412;5.432;2022-07-23T08:51:04;101822.44;;;18.92;58.54
74065;BME280;62421;51.412;5.432;2022-07-23T08:53:32;101829.06;;;18.99;57.66
74065;BME280;62421;51.412;5.432;2022-07-23T08:56:00;101827.63;;;19.05;59.27
74065;BME280;62421;51.412;5.432;2022-07-23T08:58:29;101834.09;;;19.14;58.84
74065;BME280;62421;51.412;5.432;2022-07-23T09:00:55;101829.69;;;19.22;57.03
74065;BME280;62421;51.412;5.432;2022-07-23T09:03:27;101831.69;;;19.20;55.97
74065;BME280;62421;51.412;5.432;2022-07-23T09:05:53;101831.97;;;19.17;55.70
74065;BME280;62421;51.412;5.432;2022-07-23T09:08:39;101828.69;;;19.23;55.57
74065;BME280;62421;51.412;5.432;2022-07-23T09:11:25;101827.13;;;19.31;55.99
74065;BME280;62421;51.412;5.432;2022-07-23T09:13:54;101826.13;;;19.41;58.16
74065;BME280;62421;51.412;5.432;2022-07-23T09:16:25;101824.72;;;19.47;58.08
74065;BME280;62421;51.412;5.432;2022-07-23T09:18:59;101809.81;;;19.51;57.49
74065;BME280;62421;51.412;5.432;2022-07-23T09:21:36;101809.22;;;19.57;56.45
74065;BME280;62421;51.412;5.432;2022-07-23T09:24:06;101811.56;;;19.72;57.03
74065;BME280;62421;51.412;5.432;2022-07-23T09:31:46;101813.81;;;19.96;55.45
74065;BME280;62421;51.412;5.432;2022-07-23T09:34:14;101820.56;;;19.92;52.71
74065;BME280;62421;51.412;5.432;2022-07-23T09:36:40;101824.72;;;19.96;53.14
74065;BME280;62421;51.412;5.432;2022-07-23T09:39:06;101833.03;;;20.04;54.07
74065;BME280;62421;51.412;5.432;2022-07-23T09:41:40;101833.19;;;20.22;52.56
74065;BME280;62421;51.412;5.432;2022-07-23T09:44:14;101829.13;;;20.26;54.17
74065;BME280;62421;51.412;5.432;2022-07-23T09:46:40;101833.13;;;20.41;54.93
74065;BME280;62421;51.412;5.432;2022-07-23T09:49:16;101835.94;;;20.50;53.10
74065;BME280;62421;51.412;5.432;2022-07-23T09:51:49;101831.84;;;20.36;52.28
74065;BME280;62421;51.412;5.432;2022-07-23T09:54:24;101828.78;;;20.49;53.98
74065;BME280;62421;51.412;5.432;2022-07-23T09:56:53;101828.34;;;20.53;53.68
74065;BME280;62421;51.412;5.432;2022-07-23T09:59:23;101829.91;;;20.56;52.75
74065;BME280;62421;51.412;5.432;2022-07-23T10:01:50;101836.22;;;20.56;51.94
74065;BME280;62421;51.412;5.432;2022-07-23T10:04:17;101835.38;;;20.56;53.62
74065;BME280;62421;51.412;5.432;2022-07-23T10:06:43;101824.03;;;20.60;50.54
74065;BME280;62421;51.412;5.432;2022-07-23T10:09:12;101832.81;;;20.54;50.38
74065;BME280;62421;51.412;5.432;2022-07-23T10:11:41;101818.75;;;20.59;50.34
74065;BME280;62421;51.412;5.432;2022-07-23T10:14:06;101826.13;;;20.76;51.15
74065;BME280;62421;51.412;5.432;2022-07-23T10:16:32;101824.75;;;20.90;50.02
74065;BME280;62421;51.412;5.432;2022-07-23T10:18:57;101816.22;;;21.03;49.68
74065;BME280;62421;51.412;5.432;2022-07-23T10:21:42;101820.56;;;21.23;51.68
74065;BME280;62421;51.412;5.432;2022-07-23T10:27:04;101819.72;;;21.41;49.12
74065;BME280;62421;51.412;5.432;2022-07-23T10:29:54;101819.31;;;21.36;48.64
74065;BME280;62421;51.412;5.432;2022-07-23T10:32:31;101807.63;;;21.25;47.69
74065;BME280;62421;51.412;5.432;2022-07-23T10:35:18;101821.81;;;21.29;50.21
74065;BME280;62421;51.412;5.432;2022-07-23T10:37:49;101817.38;;;21.28;46.66
74065;BME280;62421;51.412;5.432;2022-07-23T10:40:21;101820.25;;;21.26;47.58
74065;BME280;62421;51.412;5.432;2022-07-23T10:42:50;101822.22;;;21.34;46.93
74065;BME280;62421;51.412;5.432;2022-07-23T10:48:13;101818.72;;;21.42;50.09
74065;BME280;62421;51.412;5.432;2022-07-23T10:50:39;101819.28;;;21.45;48.25
74065;BME280;62421;51.412;5.432;2022-07-23T10:57:55;101806.94;;;21.77;49.80
74065;BME280;62421;51.412;5.432;2022-07-23T11:00:22;101814.75;;;21.90;50.82
74065;BME280;62421;51.412;5.432;2022-07-23T11:02:53;101818.63;;;21.87;47.91
74065;BME280;62421;51.412;5.432;2022-07-23T11:05:22;101825.44;;;21.83;47.93
74065;BME280;62421;51.412;5.432;2022-07-23T11:08:11;101807.53;;;21.89;48.88
74065;BME280;62421;51.412;5.432;2022-07-23T11:34:39;101798.56;;;22.49;45.96
74065;BME280;62421;51.412;5.432;2022-07-23T11:37:26;101807.84;;;22.56;48.12
74065;BME280;62421;51.412;5.432;2022-07-23T11:39:54;101802.22;;;22.58;46.19
74065;BME280;62421;51.412;5.432;2022-07-23T11:42:20;101807.53;;;22.59;46.27
74065;BME280;62421;51.412;5.432;2022-07-23T11:44:46;101802.22;;;22.58;46.63
74065;BME280;62421;51.412;5.432;2022-07-23T11:47:11;101804.31;;;22.64;46.56
74065;BME280;62421;51.412;5.432;2022-07-23T11:49:37;101793.19;;;22.65;45.47
74065;BME280;62421;51.412;5.432;2022-07-23T11:54:31;101794.03;;;22.66;44.76
74065;BME280;62421;51.412;5.432;2022-07-23T11:56:58;101808.09;;;22.71;46.68
74065;BME280;62421;51.412;5.432;2022-07-23T11:59:26;101805.78;;;22.84;45.14
74065;BME280;62421;51.412;5.432;2022-07-23T12:02:05;101801.38;;;23.00;46.98
74065;BME280;62421;51.412;5.432;2022-07-23T12:04:46;101804.16;;;23.08;45.17
74065;BME280;62421;51.412;5.432;2022-07-23T12:07:31;101801.25;;;23.09;46.28
74065;BME280;62421;51.412;5.432;2022-07-23T12:10:14;101799.91;;;23.14;43.36
74065;BME280;62421;51.412;5.432;2022-07-23T12:12:53;101799.06;;;23.29;46.39
74065;BME280;62421;51.412;5.432;2022-07-23T12:15:22;101792.22;;;23.34;43.45
74065;BME280;62421;51.412;5.432;2022-07-23T12:17:49;101785.75;;;23.35;44.49
74065;BME280;62421;51.412;5.432;2022-07-23T12:20:17;101793.44;;;23.39;43.88
74065;BME280;62421;51.412;5.432;2022-07-23T12:22:46;101796.72;;;23.43;43.34
74065;BME280;62421;51.412;5.432;2022-07-23T12:25:14;101794.66;;;23.45;43.56
74065;BME280;62421;51.412;5.432;2022-07-23T12:27:40;101792.59;;;23.63;45.52
74065;BME280;62421;51.412;5.432;2022-07-23T12:32:50;101786.28;;;24.04;45.63
74065;BME280;62421;51.412;5.432;2022-07-23T12:35:16;101785.06;;;24.06;42.88
74065;BME280;62421;51.412;5.432;2022-07-23T12:37:43;101789.19;;;24.10;44.21
74065;BME280;62421;51.412;5.432;2022-07-23T12:40:30;101773.41;;;24.12;43.63
74065;BME280;62421;51.412;5.432;2022-07-23T12:43:02;101777.38;;;24.10;42.23
74065;BME280;62421;51.412;5.432;2022-07-23T12:45:42;101777.53;;;24.00;42.56
74065;BME280;62421;51.412;5.432;2022-07-23T12:48:08;101769.34;;;23.84;44.81
74065;BME280;62421;51.412;5.432;2022-07-23T12:53:30;101770.19;;;23.76;43.97
74065;BME280;62421;51.412;5.432;2022-07-23T12:58:50;101769.66;;;23.97;43.06
74065;BME280;62421;51.412;5.432;2022-07-23T13:01:25;101775.47;;;24.02;43.10
74065;BME280;62421;51.412;5.432;2022-07-23T13:06:27;101776.16;;;24.12;43.89
74065;BME280;62421;51.412;5.432;2022-07-23T13:08:53;101769.25;;;24.33;43.45
74065;BME280;62421;51.412;5.432;2022-07-23T13:11:18;101765.94;;;24.54;43.15
74065;BME280;62421;51.412;5.432;2022-07-23T13:13:43;101770.41;;;24.55;41.33
74065;BME280;62421;51.412;5.432;2022-07-23T13:16:09;101768.00;;;24.52;41.11
74065;BME280;62421;51.412;5.432;2022-07-23T13:18:34;101777.56;;;24.64;42.04
74065;BME280;62421;51.412;5.432;2022-07-23T13:20:59;101770.78;;;24.91;43.20
74065;BME280;62421;51.412;5.432;2022-07-23T13:23:25;101764.31;;;25.07;40.86
74065;BME280;62421;51.412;5.432;2022-07-23T13:25:51;101764.44;;;25.14;40.49
74065;BME280;62421;51.412;5.432;2022-07-23T13:28:19;101764.09;;;25.17;41.32
74065;BME280;62421;51.412;5.432;2022-07-23T13:30:45;101767.78;;;25.01;40.68
74065;BME280;62421;51.412;5.432;2022-07-23T13:33:11;101755.59;;;25.04;41.64
74065;BME280;62421;51.412;5.432;2022-07-23T13:35:37;101756.19;;;25.14;41.92
74065;BME280;62421;51.412;5.432;2022-07-23T13:38:04;101764.50;;;25.06;40.78
74065;BME280;62421;51.412;5.432;2022-07-23T13:40:30;101760.34;;;25.10;40.92
74065;BME280;62421;51.412;5.432;2022-07-23T13:42:55;101760.56;;;25.08;41.26